Latest Weather Observations for Gold Coast Seaway

IDQ60801

Issued at 6:02 am EST Saturday 28 May 2016 (issued every 30 minutes, with the page automatically refreshed every 10 minutes)

About weather observations | Map of weather stations | Latest weather observations for QLD | Other Formats
Station Details ID: 040764 Name: GOLD COAST SEAWAY Lat: -27.94 Lon: 153.43 Height: 2.98 m
Data from the previous 72 hours. | See also: Recent months at Gold Coast Seaway
Date/Time
EST
Temp
°C
App
Temp
°C
Dew
Point
Rel
Hum
%
Delta-T
°C
Wind Press
QNH
hPa
Press
MSL
hPa
Rain
since 9 am
mm
Dir
 
Spd
km/h
Gust
km/h
Spd
kts
Gust
kts
28/06:00am 14.3 8.7 3.5 48 4.9 WNW 22 28 12 15 1011.4 1011.4 0.0
28/05:30am 14.8 8.1 3.9 48 5.0 NW 28 33 15 18 1011.2 1011.2 0.0
28/05:00am 15.0 8.3 3.5 46 5.2 NW 28 32 15 17 1010.9 1010.9 0.0
28/04:30am 15.4 8.3 3.5 45 5.4 NW 30 33 16 18 1011.0 1011.0 0.0
28/04:00am 15.8 10.5 2.9 42 5.8 NW 20 26 11 14 1011.0 1011.0 0.0
28/03:30am 15.9 10.7 3.7 44 5.6 NW 20 26 11 14 1010.6 1010.6 0.0
28/03:00am 16.3 9.7 2.3 39 6.3 NW 26 30 14 16 1010.4 1010.4 0.0
28/02:30am 16.4 11.4 1.3 36 6.6 WNW 17 20 9 11 1010.3 1010.3 0.0
28/02:00am 15.9 12.0 1.2 37 6.4 WNW 11 15 6 8 1010.5 1010.5 0.0
28/01:30am 16.7 13.1 0.4 33 7.0 WNW 9 15 5 8 1010.6 1010.6 0.0
28/01:00am 17.3 11.7 0.9 33 7.2 W 20 28 11 15 1009.8 1009.8 0.0
28/12:30am 17.4 11.5 1.8 35 7.0 W 22 32 12 17 1010.0 1010.0 0.0
28/12:00am 17.4 11.5 1.8 35 7.0 W 22 32 12 17 1009.9 1009.9 0.0
 
Date/Time
EST
Temp
°C
App
Temp
°C
Dew
Point
Rel
Hum
%
Delta-T
°C
Wind Press
QNH
hPa
Press
MSL
hPa
Rain
since 9 am
mm
Dir
 
Spd
km/h
Gust
km/h
Spd
kts
Gust
kts
27/11:30pm 17.4 12.0 2.6 37 6.7 W 20 33 11 18 1010.1 1010.1 0.0
27/11:00pm 17.9 10.8 3.4 38 6.7 WNW 30 37 16 20 1010.0 1010.0 0.0
27/10:30pm 18.1 10.7 3.9 39 6.7 WNW 32 39 17 21 1009.7 1009.7 0.0
27/10:00pm 18.6 9.9 4.0 38 6.9 WNW 39 50 21 27 1009.2 1009.2 0.0
27/09:30pm 18.9 11.4 4.3 38 7.0 WNW 33 43 18 23 1009.2 1009.2 0.0
27/09:00pm 19.4 11.1 4.4 37 7.2 WNW 37 48 20 26 1009.3 1009.3 0.0
27/08:30pm 19.7 12.1 3.8 35 7.6 W 33 41 18 22 1009.2 1009.2 0.0
27/08:00pm 20.0 13.8 4.5 36 7.5 WNW 26 33 14 18 1009.1 1009.1 0.0
27/07:30pm 20.2 13.0 5.1 37 7.4 WNW 32 44 17 24 1008.9 1008.9 0.0
27/07:02pm 20.7 13.7 5.9 38 7.4 WNW 32 50 17 27 1008.6 1008.6 0.0
27/07:00pm 20.8 13.6 6.0 38 7.4 WNW 33 50 18 27 1008.5 1008.5 0.0
27/06:30pm 21.2 14.3 6.3 38 7.5 WNW 32 39 17 21 1007.7 1007.7 0.0
27/06:00pm 21.6 15.8 6.3 37 7.8 W 26 33 14 18 1007.5 1007.5 0.0
27/05:30pm 22.2 16.6 5.6 34 8.3 W 24 39 13 21 1007.2 1007.2 0.0
27/05:00pm 22.7 16.0 5.6 33 8.6 WNW 30 35 16 19 1007.0 1007.0 0.0
27/04:30pm 23.5 15.9 5.9 32 8.9 W 35 50 19 27 1006.3 1006.3 0.0
27/04:21pm 23.7 16.8 6.5 33 8.8 W 32 50 17 27 1006.1 1006.1 0.0
27/04:00pm 24.0 15.4 6.3 32 9.1 W 41 54 22 29 1005.9 1005.9 0.0
27/03:30pm 24.6 18.0 7.7 34 8.9 W 32 50 17 27 1005.4 1005.4 0.0
27/03:12pm 24.3 17.0 7.0 33 9.0 W 35 54 19 29 1005.2 1005.2 0.0
27/03:00pm 24.8 17.2 7.4 33 9.2 W 37 50 20 27 1005.4 1005.4 0.0
27/02:30pm 25.1 16.7 7.3 32 9.4 WNW 41 61 22 33 1005.2 1005.2 0.0
27/02:22pm 24.9 17.2 7.1 32 9.3 W 37 61 20 33 1005.1 1005.1 0.0
27/02:00pm 25.2 17.3 7.8 33 9.3 W 39 52 21 28 1005.2 1005.2 0.0
27/01:30pm 24.4 16.4 7.5 34 8.9 W 39 48 21 26 1005.3 1005.3 0.0
27/01:00pm 23.4 16.0 8.3 38 8.0 W 37 56 20 30 1005.7 1005.7 0.0
27/12:43pm 23.8 17.1 8.2 37 8.3 W 33 59 18 32 1005.9 1005.9 0.0
27/12:30pm 24.7 18.3 9.4 38 8.3 W 33 48 18 26 1006.1 1006.1 0.0
27/12:28pm 24.5 17.7 9.3 38 8.3 W 35 54 19 29 1006.1 1006.1 0.0
27/12:00pm 23.2 15.7 8.1 38 8.0 W 37 54 20 29 1006.2 1006.2 0.0
27/11:50am 23.7 16.4 8.9 39 7.9 WNW 37 59 20 32 1006.4 1006.4 0.0
27/11:30am 24.0 17.9 9.6 40 7.8 WNW 32 39 17 21 1006.6 1006.6 0.0
27/11:00am 23.1 18.6 11.5 48 6.5 WNW 26 33 14 18 1007.1 1007.1 0.0
27/10:30am 23.1 18.1 12.1 50 6.2 NW 30 37 16 20 1007.6 1007.6 0.0
27/10:00am 22.2 17.7 12.7 55 5.4 W 28 39 15 21 1008.1 1008.1 0.0
27/09:30am 22.3 18.4 14.4 61 4.6 WNW 28 35 15 19 1008.1 1008.1 0.0
27/09:00am 22.2 18.2 15.3 65 4.1 NW 30 37 16 20 1007.9 1007.9 0.0
27/08:30am 21.3 17.8 15.4 69 3.5 NW 28 35 15 19 1007.6 1007.6 0.0
27/08:00am 20.7 16.6 15.9 74 2.9 NW 32 35 17 19 1007.5 1007.5 0.0
27/07:30am 20.2 16.2 16.2 78 2.4 NW 32 37 17 20 1007.1 1007.1 0.0
27/07:00am 20.1 15.9 16.1 78 2.4 NW 33 35 18 19 1006.8 1006.8 0.0
27/06:30am 20.3 16.3 16.1 77 2.5 NW 32 39 17 21 1006.5 1006.5 0.0
27/06:00am 20.4 16.7 16.0 76 2.6 WNW 30 33 16 18 1006.3 1006.3 0.0
27/05:30am 20.3 16.6 16.1 77 2.5 NW 30 35 16 19 1005.8 1005.8 0.0
27/05:00am 21.0 17.7 16.0 73 3.0 NW 28 33 15 18 1005.3 1005.3 0.0
27/04:30am 21.2 19.0 16.0 72 3.1 WNW 22 28 12 15 1005.6 1005.6 0.0
27/04:00am 21.8 18.7 15.6 68 3.7 WNW 26 32 14 17 1005.9 1005.9 0.0
27/03:30am 22.3 18.9 15.9 67 3.9 NW 28 33 15 18 1005.9 1005.9 0.0
27/03:00am 22.0 18.1 15.6 67 3.8 NW 30 35 16 19 1005.5 1005.5 0.0
27/02:30am 21.5 18.2 16.0 71 3.3 NW 28 33 15 18 1005.4 1005.4 0.0
27/02:00am 21.4 17.6 15.7 70 3.4 NW 30 33 16 18 1005.5 1005.5 0.0
27/01:30am 20.4 19.7 16.4 78 2.4 NNW 15 19 8 10 1006.0 1006.0 0.0
27/01:00am 19.9 20.3 16.2 79 2.2 N 9 13 5 7 1006.0 1006.0 0.0
27/12:30am 20.4 20.8 16.2 77 2.5 N 9 11 5 6 1006.4 1006.4 0.0
27/12:00am 21.2 21.0 16.8 76 2.7 NW 13 15 7 8 1007.1 1007.1 0.0
 
Date/Time
EST
Temp
°C
App
Temp
°C
Dew
Point
Rel
Hum
%
Delta-T
°C
Wind Press
QNH
hPa
Press
MSL
hPa
Rain
since 9 am
mm
Dir
 
Spd
km/h
Gust
km/h
Spd
kts
Gust
kts
26/11:30pm 21.5 20.7 17.1 76 2.7 WNW 17 20 9 11 1007.4 1007.4 0.0
26/11:00pm 21.6 20.9 17.4 77 2.6 W 17 24 9 13 1007.8 1007.8 0.0
26/10:30pm 22.2 21.4 19.2 83 1.9 NW 22 32 12 17 1008.0 1008.0 0.0
26/10:00pm 22.3 21.1 19.3 83 1.9 NNW 24 35 13 19 1006.5 1006.5 0.0
26/09:30pm 22.5 20.7 19.5 83 1.9 NNW 28 41 15 22 1006.7 1006.7 0.0
26/09:00pm 22.8 20.2 19.6 82 2.1 NNW 32 52 17 28 1006.7 1006.7 0.0
26/08:53pm 22.8 20.1 19.6 82 2.0 NNW 33 52 18 28 1006.4 1006.4 0.0
26/08:30pm 23.0 20.9 19.8 82 2.1 NNW 30 43 16 23 1006.7 1006.7 0.0
26/08:00pm 23.3 21.8 19.5 79 2.4 NNW 26 35 14 19 1007.1 1007.1 0.0
26/07:30pm 23.4 22.0 18.9 76 2.9 NNW 24 41 13 22 1006.9 1006.9 0.0
26/07:00pm 23.5 22.3 18.4 73 3.2 NNW 22 33 12 18 1007.2 1007.2 0.0
26/06:30pm 23.0 22.5 17.0 69 3.7 NNW 15 19 8 10 1007.3 1007.3 0.0
26/06:00pm 22.6 22.3 16.4 68 3.8 N 13 19 7 10 1007.2 1007.2 0.0
26/05:30pm 22.5 22.0 15.8 66 4.0 NW 13 17 7 9 1007.3 1007.3 0.0
26/05:00pm 22.7 22.2 15.0 61 4.6 NNW 11 15 6 8 1007.0 1007.0 0.0
26/04:30pm 23.5 22.8 14.2 56 5.5 NNW 11 15 6 8 1007.2 1007.2 0.0
26/04:00pm 24.6 23.1 14.1 52 6.2 NNW 15 20 8 11 1007.4 1007.4 0.0
26/03:30pm 24.9 21.5 12.5 46 7.1 N 22 32 12 17 1007.4 1007.4 0.0
26/03:00pm 24.5 20.5 15.1 55 5.6 N 30 37 16 20 1007.5 1007.5 0.0
26/02:30pm 23.4 19.8 14.1 56 5.5 N 26 33 14 18 1008.3 1008.3 0.0
26/02:00pm 23.6 20.7 12.9 51 6.2 NNW 20 28 11 15 1008.5 1008.5 0.0
26/01:30pm 24.7 20.5 12.3 46 7.1 N 26 35 14 19 1008.9 1008.9 0.0
26/01:00pm 24.2 19.3 11.2 44 7.3 N 28 35 15 19 1009.5 1009.5 0.0
26/12:30pm 24.9 20.6 12.2 45 7.3 N 26 32 14 17 1010.2 1010.2 0.0
26/12:00pm 23.7 20.0 9.3 40 7.8 NNW 19 26 10 14 1011.1 1011.1 0.0
26/11:30am 23.2 19.0 8.1 38 8.0 N 20 26 11 14 1012.1 1012.1 0.0
26/11:00am 21.9 17.6 7.0 38 7.6 N 19 26 10 14 1013.0 1013.0 0.0
26/10:30am 21.9 17.7 7.3 39 7.5 N 19 26 10 14 1013.7 1013.7 0.0
26/10:00am 21.4 17.0 7.6 41 7.1 N 20 26 11 14 1014.2 1014.2 0.0
26/09:30am 20.4 16.6 7.7 44 6.5 NNW 17 20 9 11 1014.7 1014.7 0.0
26/09:00am 19.2 16.0 8.5 50 5.5 NW 15 19 8 10 1015.0 1015.0 0.0
26/08:30am 17.5 14.3 8.4 55 4.7 NNW 15 17 8 9 1015.1 1015.1 0.0
26/08:00am 16.1 13.2 9.8 66 3.3 NNW 15 19 8 10 1015.0 1015.0 0.0
26/07:30am 14.3 12.5 9.3 72 2.6 NNW 9 13 5 7 1015.0 1015.0 0.0
26/07:00am 13.2 10.2 9.1 76 2.1 NNW 15 19 8 10 1015.0 1015.0 0.0
26/06:30am 13.5 11.3 10.9 84 1.4 NW 13 17 7 9 1014.8 1014.8 0.0
26/06:00am 14.5 12.0 10.9 79 1.9 NW 15 17 8 9 1015.0 1015.0 0.0
26/05:30am 14.9 13.0 11.7 81 1.7 NW 13 17 7 9 1014.8 1014.8 0.0
26/05:00am 13.8 11.5 11.8 88 1.1 NW 15 17 8 9 1014.6 1014.6 0.0
26/04:30am 14.4 12.1 11.7 84 1.4 NW 15 17 8 9 1014.5 1014.5 0.0
26/04:00am 14.7 13.0 12.6 87 1.1 NW 13 15 7 8 1014.7 1014.7 0.0
26/03:30am 13.0 11.3 11.2 89 0.9 W 11 13 6 7 1014.8 1014.8 0.0
26/03:00am 12.3 12.2 9.3 82 1.5 CALM 0 0 0 0 1015.2 1015.2 0.0
26/02:30am 13.7 11.7 10.3 80 1.8 W 11 11 6 6 1015.4 1015.4 0.0
26/02:00am 13.7 11.7 10.3 80 1.8 W 11 13 6 7 1015.7 1015.7 0.0
26/01:30am 14.6 12.8 10.8 78 2.0 WSW 11 13 6 7 1016.0 1016.0 0.0
26/01:00am 14.7 12.8 10.5 76 2.2 SW 11 13 6 7 1016.0 1016.0 0.0
26/12:30am 15.7 13.6 11.3 75 2.4 WNW 13 17 7 9 1016.3 1016.3 0.0
26/12:00am 14.7 12.9 9.3 70 2.8 W 9 13 5 7 1016.7 1016.7 0.0
 
Date/Time
EST
Temp
°C
App
Temp
°C
Dew
Point
Rel
Hum
%
Delta-T
°C
Wind Press
QNH
hPa
Press
MSL
hPa
Rain
since 9 am
mm
Dir
 
Spd
km/h
Gust
km/h
Spd
kts
Gust
kts
25/11:30pm 15.3 12.7 9.4 68 3.0 W 13 15 7 8 1016.9 1016.9 0.0
25/11:00pm 16.0 13.2 9.9 67 3.2 WNW 15 19 8 10 1017.0 1017.0 0.0
25/10:30pm 15.4 13.0 10.0 70 2.8 WNW 13 13 7 7 1017.0 1017.0 0.0
25/10:00pm 15.6 13.4 9.5 67 3.2 W 11 13 6 7 1017.1 1017.1 0.0
25/09:30pm 15.6 13.5 9.7 68 3.1 W 11 11 6 6 1016.9 1016.9 0.0
25/09:00pm 15.1 13.4 9.9 71 2.7 WNW 9 11 5 6 1016.8 1016.8 0.0
25/08:30pm 15.6 13.9 9.7 68 3.1 WNW 9 11 5 6 1016.9 1016.9 0.0
25/08:00pm 15.8 14.4 10.8 72 2.7 WNW 9 11 5 6 1016.9 1016.9 0.0
25/07:30pm 15.5 14.1 10.9 74 2.4 NNW 9 11 5 6 1016.6 1016.6 0.0
25/07:00pm 16.0 15.1 11.4 74 2.5 NE 7 9 4 5 1016.5 1016.5 0.0
25/06:30pm 15.2 13.7 8.4 64 3.4 ENE 6 7 3 4 1016.1 1016.1 0.0
25/06:00pm 16.2 14.5 8.2 59 4.0 ENE 7 9 4 5 1016.1 1016.1 0.0
25/05:30pm 17.4 15.1 7.5 52 5.0 ENE 9 11 5 6 1015.9 1015.9 0.0
25/05:00pm 19.8 17.6 7.9 46 6.1 E 9 13 5 7 1015.7 1015.7 0.0
25/04:30pm 21.2 18.6 7.8 42 6.9 E 11 15 6 8 1015.5 1015.5 0.0
25/04:00pm 22.1 19.8 7.5 39 7.6 E 9 13 5 7 1015.6 1015.6 0.0
25/03:30pm 22.5 19.7 7.1 37 7.9 E 11 13 6 7 1015.5 1015.5 0.0
25/03:00pm 23.0 20.1 8.3 39 7.8 E 13 15 7 8 1015.5 1015.5 0.0
25/02:30pm 23.4 20.6 7.1 35 8.5 E 11 15 6 8 1015.5 1015.5 0.0
25/02:00pm 23.4 20.5 4.9 30 9.2 SE 9 13 5 7 1015.8 1015.8 0.0
25/01:30pm 23.3 20.2 3.8 28 9.5 SE 9 11 5 6 1016.1 1016.1 0.0
25/01:00pm 23.4 20.6 5.3 31 9.1 SE 9 13 5 7 1016.4 1016.4 0.0
25/12:30pm 23.5 20.2 4.5 29 9.4 SSE 11 15 6 8 1016.4 1016.4 0.0
25/12:00pm 23.1 20.7 5.1 31 9.0 SSE 7 11 4 6 1016.7 1016.7 0.0
25/11:30am 22.4 19.5 4.5 31 8.8 SSE 9 11 5 6 1017.0 1017.0 0.0
25/11:00am 22.3 19.7 4.4 31 8.7 SSE 7 9 4 5 1017.4 1017.4 0.0
25/10:30am 21.3 18.3 2.1 28 8.9 SSE 7 9 4 5 1017.7 1017.7 0.0
25/10:00am 21.3 18.4 2.6 29 8.8 W 7 7 4 4 1017.8 1017.8 0.0
25/09:30am 20.2 17.7 3.9 34 7.8 W 6 7 3 4 1017.8 1017.8 0.0
25/09:00am 18.3 15.8 4.8 41 6.5 W 7 9 4 5 1017.9 1017.9 0.0
25/08:30am 16.7 14.5 5.3 47 5.5 WSW 6 9 3 5 1017.8 1017.8 0.0
25/08:00am 14.7 12.3 6.8 59 3.8 WSW 9 11 5 6 1017.7 1017.7 0.0
25/07:30am 13.2 10.4 6.8 65 3.1 W 11 15 6 8 1017.3 1017.3 0.0
25/07:00am 11.9 9.8 8.2 78 1.8 W 9 13 5 7 1017.1 1017.1 0.0
25/06:30am 11.5 9.1 8.7 83 1.4 W 11 13 6 7 1016.9 1016.9 0.0

Other Formats:

Comma delimited format used in spreadsheet applications
http://www.bom.gov.au/fwo/IDQ60801/IDQ60801.94580.axf

JavaScript Object Notation format (JSON) in row-major order
http://www.bom.gov.au/fwo/IDQ60801/IDQ60801.94580.json